< < Back
Terminal Aerodrome Forecast


Current Version              Previous Versions:   1  2  3  4  5  6  7  8  9  

Terminal Aerodrome Forecast

631
FTUS42 KGSP 200500
TAFAND
TAF
KAND 200520Z 2006/2106 27003KT P6SM FEW060
     FM201000 00000KT P6SM SCT060
     FM202100 26006KT P6SM SCT060
     FM202300 32004KT P6SM SCT060=



Latest METAR

096
SAUS70 KWBC 202000
MTRAND
METAR KAND 201956Z AUTO 25004KT 10SM CLR 32/21 A3000 RMK AO2 SLP146
T03220211


USA.gov is the U.S. government's official web portal to all federal, state and local government web resources and services.